sensor_id;sensor_type;location;lat;lon;timestamp;temperature;humidity
12874;DHT22;6505;51.114;13.128;2022-12-18T00:00:48;2.50;35.30
12874;DHT22;6505;51.114;13.128;2022-12-18T00:03:18;2.50;35.20
12874;DHT22;6505;51.114;13.128;2022-12-18T00:05:47;2.50;35.40
12874;DHT22;6505;51.114;13.128;2022-12-18T00:08:18;2.50;35.30
12874;DHT22;6505;51.114;13.128;2022-12-18T00:10:47;2.50;35.30
12874;DHT22;6505;51.114;13.128;2022-12-18T00:13:15;2.50;35.10
12874;DHT22;6505;51.114;13.128;2022-12-18T00:15:45;2.50;35.10
12874;DHT22;6505;51.114;13.128;2022-12-18T00:18:13;2.50;35.20
12874;DHT22;6505;51.114;13.128;2022-12-18T00:20:46;2.40;35.00
12874;DHT22;6505;51.114;13.128;2022-12-18T00:23:14;2.40;35.10
12874;DHT22;6505;51.114;13.128;2022-12-18T00:25:43;2.40;34.90
12874;DHT22;6505;51.114;13.128;2022-12-18T00:28:11;2.40;34.90
12874;DHT22;6505;51.114;13.128;2022-12-18T00:30:42;2.40;34.90
12874;DHT22;6505;51.114;13.128;2022-12-18T00:33:10;2.40;34.90
12874;DHT22;6505;51.114;13.128;2022-12-18T00:35:38;2.40;34.80
12874;DHT22;6505;51.114;13.128;2022-12-18T00:38:06;2.40;34.70
12874;DHT22;6505;51.114;13.128;2022-12-18T00:40:37;2.30;34.70
12874;DHT22;6505;51.114;13.128;2022-12-18T00:43:09;2.30;34.70
12874;DHT22;6505;51.114;13.128;2022-12-18T00:45:36;2.30;34.50
12874;DHT22;6505;51.114;13.128;2022-12-18T00:48:06;2.30;34.50
12874;DHT22;6505;51.114;13.128;2022-12-18T00:50:34;2.30;34.50
12874;DHT22;6505;51.114;13.128;2022-12-18T00:53:03;2.30;34.50
12874;DHT22;6505;51.114;13.128;2022-12-18T00:55:31;2.30;34.50
12874;DHT22;6505;51.114;13.128;2022-12-18T00:58:01;2.30;34.50
12874;DHT22;6505;51.114;13.128;2022-12-18T01:01:09;2.20;34.20
12874;DHT22;6505;51.114;13.128;2022-12-18T01:03:41;2.20;34.50
12874;DHT22;6505;51.114;13.128;2022-12-18T01:06:11;2.20;34.40
12874;DHT22;6505;51.114;13.128;2022-12-18T01:08:41;2.20;34.40
12874;DHT22;6505;51.114;13.128;2022-12-18T01:11:13;2.20;34.40
12874;DHT22;6505;51.114;13.128;2022-12-18T01:13:44;2.10;34.30
12874;DHT22;6505;51.114;13.128;2022-12-18T01:16:15;2.10;34.20
12874;DHT22;6505;51.114;13.128;2022-12-18T01:18:46;2.10;34.40
12874;DHT22;6505;51.114;13.128;2022-12-18T01:21:15;2.10;34.20
12874;DHT22;6505;51.114;13.128;2022-12-18T01:23:45;2.10;34.20
12874;DHT22;6505;51.114;13.128;2022-12-18T01:26:14;2.00;34.00
12874;DHT22;6505;51.114;13.128;2022-12-18T01:28:43;2.00;34.20
12874;DHT22;6505;51.114;13.128;2022-12-18T01:31:18;2.00;34.10
12874;DHT22;6505;51.114;13.128;2022-12-18T01:33:47;2.00;34.20
12874;DHT22;6505;51.114;13.128;2022-12-18T01:36:19;2.00;34.10
12874;DHT22;6505;51.114;13.128;2022-12-18T01:38:52;2.00;34.30
12874;DHT22;6505;51.114;13.128;2022-12-18T01:41:26;2.00;34.00
12874;DHT22;6505;51.114;13.128;2022-12-18T01:45:01;2.00;34.30
12874;DHT22;6505;51.114;13.128;2022-12-18T01:47:36;1.90;34.30
12874;DHT22;6505;51.114;13.128;2022-12-18T01:50:09;1.90;34.30
12874;DHT22;6505;51.114;13.128;2022-12-18T01:52:42;1.90;34.30
12874;DHT22;6505;51.114;13.128;2022-12-18T01:55:19;1.90;34.30
12874;DHT22;6505;51.114;13.128;2022-12-18T01:57:52;1.90;34.40
12874;DHT22;6505;51.114;13.128;2022-12-18T02:00:26;1.90;34.40
12874;DHT22;6505;51.114;13.128;2022-12-18T02:03:01;1.90;35.20
12874;DHT22;6505;51.114;13.128;2022-12-18T02:05:38;1.90;34.50
12874;DHT22;6505;51.114;13.128;2022-12-18T02:08:18;1.90;34.70
12874;DHT22;6505;51.114;13.128;2022-12-18T02:10:56;1.90;34.60
12874;DHT22;6505;51.114;13.128;2022-12-18T02:13:38;1.80;34.60
12874;DHT22;6505;51.114;13.128;2022-12-18T02:16:23;1.80;34.60
12874;DHT22;6505;51.114;13.128;2022-12-18T02:19:08;1.80;34.50
12874;DHT22;6505;51.114;13.128;2022-12-18T02:22:03;1.80;34.40
12874;DHT22;6505;51.114;13.128;2022-12-18T02:24:53;1.80;34.30
12874;DHT22;6505;51.114;13.128;2022-12-18T02:27:37;1.80;34.40
12874;DHT22;6505;51.114;13.128;2022-12-18T02:30:09;1.80;34.40
12874;DHT22;6505;51.114;13.128;2022-12-18T02:32:44;1.70;34.20
12874;DHT22;6505;51.114;13.128;2022-12-18T02:35:23;1.70;34.10
12874;DHT22;6505;51.114;13.128;2022-12-18T02:38:01;1.70;34.10
12874;DHT22;6505;51.114;13.128;2022-12-18T02:40:36;1.70;34.10
12874;DHT22;6505;51.114;13.128;2022-12-18T02:43:11;1.70;34.10
12874;DHT22;6505;51.114;13.128;2022-12-18T02:45:50;1.70;34.10
12874;DHT22;6505;51.114;13.128;2022-12-18T02:48:32;1.70;34.00
12874;DHT22;6505;51.114;13.128;2022-12-18T02:51:08;1.70;33.90
12874;DHT22;6505;51.114;13.128;2022-12-18T02:53:53;1.70;34.00
12874;DHT22;6505;51.114;13.128;2022-12-18T02:56:31;1.70;34.00
12874;DHT22;6505;51.114;13.128;2022-12-18T02:59:12;1.60;33.90
12874;DHT22;6505;51.114;13.128;2022-12-18T03:01:53;1.60;33.90
12874;DHT22;6505;51.114;13.128;2022-12-18T03:04:38;1.60;33.90
12874;DHT22;6505;51.114;13.128;2022-12-18T03:07:17;1.60;33.90
12874;DHT22;6505;51.114;13.128;2022-12-18T03:10:02;1.60;33.80
12874;DHT22;6505;51.114;13.128;2022-12-18T03:12:35;1.60;33.90
12874;DHT22;6505;51.114;13.128;2022-12-18T03:15:18;1.60;33.90
12874;DHT22;6505;51.114;13.128;2022-12-18T03:18:04;1.60;33.90
12874;DHT22;6505;51.114;13.128;2022-12-18T03:20:40;1.50;33.80
12874;DHT22;6505;51.114;13.128;2022-12-18T03:23:18;1.50;33.80
12874;DHT22;6505;51.114;13.128;2022-12-18T03:26:07;1.50;33.80
12874;DHT22;6505;51.114;13.128;2022-12-18T03:28:42;1.50;33.70
12874;DHT22;6505;51.114;13.128;2022-12-18T03:31:20;1.50;33.80
12874;DHT22;6505;51.114;13.128;2022-12-18T03:33:59;1.50;33.80
12874;DHT22;6505;51.114;13.128;2022-12-18T03:36:40;1.50;33.80
12874;DHT22;6505;51.114;13.128;2022-12-18T03:39:09;1.40;33.70
12874;DHT22;6505;51.114;13.128;2022-12-18T03:41:47;1.40;33.50
12874;DHT22;6505;51.114;13.128;2022-12-18T03:44:35;1.40;33.60
12874;DHT22;6505;51.114;13.128;2022-12-18T03:47:16;1.40;33.50
12874;DHT22;6505;51.114;13.128;2022-12-18T03:49:59;1.40;33.50
12874;DHT22;6505;51.114;13.128;2022-12-18T03:52:47;1.40;33.50
12874;DHT22;6505;51.114;13.128;2022-12-18T03:55:19;1.40;33.50
12874;DHT22;6505;51.114;13.128;2022-12-18T03:57:59;1.30;33.40
12874;DHT22;6505;51.114;13.128;2022-12-18T04:00:57;1.30;33.30
12874;DHT22;6505;51.114;13.128;2022-12-18T04:03:34;1.30;33.30
12874;DHT22;6505;51.114;13.128;2022-12-18T04:06:06;1.30;33.30
12874;DHT22;6505;51.114;13.128;2022-12-18T04:08:41;1.30;33.30
12874;DHT22;6505;51.114;13.128;2022-12-18T04:11:16;1.30;33.30
12874;DHT22;6505;51.114;13.128;2022-12-18T04:13:46;1.20;33.10
12874;DHT22;6505;51.114;13.128;2022-12-18T04:16:34;1.30;33.20
12874;DHT22;6505;51.114;13.128;2022-12-18T04:19:09;1.30;33.30
12874;DHT22;6505;51.114;13.128;2022-12-18T04:21:41;1.30;33.10
12874;DHT22;6505;51.114;13.128;2022-12-18T04:24:13;1.20;33.10
12874;DHT22;6505;51.114;13.128;2022-12-18T04:26:51;1.20;33.00
12874;DHT22;6505;51.114;13.128;2022-12-18T04:29:29;1.20;33.10
12874;DHT22;6505;51.114;13.128;2022-12-18T04:32:00;1.20;33.20
12874;DHT22;6505;51.114;13.128;2022-12-18T04:34:33;1.20;33.10
12874;DHT22;6505;51.114;13.128;2022-12-18T04:37:08;1.20;33.00
12874;DHT22;6505;51.114;13.128;2022-12-18T04:39:36;1.20;33.20
12874;DHT22;6505;51.114;13.128;2022-12-18T04:42:10;1.20;33.00
12874;DHT22;6505;51.114;13.128;2022-12-18T04:44:40;1.20;32.90
12874;DHT22;6505;51.114;13.128;2022-12-18T04:47:08;1.10;32.90
12874;DHT22;6505;51.114;13.128;2022-12-18T04:49:43;1.20;32.90
12874;DHT22;6505;51.114;13.128;2022-12-18T04:52:13;1.20;33.10
12874;DHT22;6505;51.114;13.128;2022-12-18T04:54:43;1.10;33.00
12874;DHT22;6505;51.114;13.128;2022-12-18T04:57:11;1.10;32.90
12874;DHT22;6505;51.114;13.128;2022-12-18T04:59:39;1.10;32.80
12874;DHT22;6505;51.114;13.128;2022-12-18T05:02:10;1.10;32.70
12874;DHT22;6505;51.114;13.128;2022-12-18T05:04:43;1.00;32.80
12874;DHT22;6505;51.114;13.128;2022-12-18T05:07:12;1.10;32.70
12874;DHT22;6505;51.114;13.128;2022-12-18T05:09:42;1.00;32.60
12874;DHT22;6505;51.114;13.128;2022-12-18T05:12:11;1.00;32.60
12874;DHT22;6505;51.114;13.128;2022-12-18T05:14:39;1.00;32.60
12874;DHT22;6505;51.114;13.128;2022-12-18T05:17:33;1.00;32.70
12874;DHT22;6505;51.114;13.128;2022-12-18T05:20:03;1.00;32.50
12874;DHT22;6505;51.114;13.128;2022-12-18T05:22:32;1.00;32.80
12874;DHT22;6505;51.114;13.128;2022-12-18T05:25:00;1.00;32.70
12874;DHT22;6505;51.114;13.128;2022-12-18T05:27:32;0.90;32.60
12874;DHT22;6505;51.114;13.128;2022-12-18T05:30:00;0.90;32.50
12874;DHT22;6505;51.114;13.128;2022-12-18T05:32:31;0.90;32.50
12874;DHT22;6505;51.114;13.128;2022-12-18T05:35:04;0.90;32.60
12874;DHT22;6505;51.114;13.128;2022-12-18T05:37:35;0.90;32.70
12874;DHT22;6505;51.114;13.128;2022-12-18T05:40:11;0.90;32.40
12874;DHT22;6505;51.114;13.128;2022-12-18T05:42:41;0.90;32.70
12874;DHT22;6505;51.114;13.128;2022-12-18T05:45:10;0.90;32.50
12874;DHT22;6505;51.114;13.128;2022-12-18T05:47:41;0.90;32.60
12874;DHT22;6505;51.114;13.128;2022-12-18T05:50:13;0.90;32.60
12874;DHT22;6505;51.114;13.128;2022-12-18T05:52:42;0.90;32.50
12874;DHT22;6505;51.114;13.128;2022-12-18T05:55:11;0.80;32.40
12874;DHT22;6505;51.114;13.128;2022-12-18T05:57:39;0.80;32.40
12874;DHT22;6505;51.114;13.128;2022-12-18T06:00:09;0.80;32.40
12874;DHT22;6505;51.114;13.128;2022-12-18T06:02:40;0.80;32.50
12874;DHT22;6505;51.114;13.128;2022-12-18T06:05:13;0.80;32.40
12874;DHT22;6505;51.114;13.128;2022-12-18T06:07:42;0.80;32.50
12874;DHT22;6505;51.114;13.128;2022-12-18T06:10:11;0.80;32.40
12874;DHT22;6505;51.114;13.128;2022-12-18T06:12:39;0.80;32.40
12874;DHT22;6505;51.114;13.128;2022-12-18T06:15:10;0.80;32.40
12874;DHT22;6505;51.114;13.128;2022-12-18T06:17:40;0.80;32.50
12874;DHT22;6505;51.114;13.128;2022-12-18T06:20:09;0.70;32.30
12874;DHT22;6505;51.114;13.128;2022-12-18T06:22:44;0.80;32.50
12874;DHT22;6505;51.114;13.128;2022-12-18T06:25:15;0.80;32.40
12874;DHT22;6505;51.114;13.128;2022-12-18T06:27:47;0.70;32.30
12874;DHT22;6505;51.114;13.128;2022-12-18T06:30:16;0.70;32.30
12874;DHT22;6505;51.114;13.128;2022-12-18T06:32:44;0.70;32.20
12874;DHT22;6505;51.114;13.128;2022-12-18T06:35:18;0.70;32.20
12874;DHT22;6505;51.114;13.128;2022-12-18T06:37:48;0.70;32.20
12874;DHT22;6505;51.114;13.128;2022-12-18T06:40:19;0.70;32.20
12874;DHT22;6505;51.114;13.128;2022-12-18T06:42:47;0.70;32.30
12874;DHT22;6505;51.114;13.128;2022-12-18T06:45:15;0.70;32.20
12874;DHT22;6505;51.114;13.128;2022-12-18T06:47:45;0.70;32.10
12874;DHT22;6505;51.114;13.128;2022-12-18T06:50:14;0.60;32.00
12874;DHT22;6505;51.114;13.128;2022-12-18T06:52:42;0.60;32.10
12874;DHT22;6505;51.114;13.128;2022-12-18T06:55:11;0.60;32.10
12874;DHT22;6505;51.114;13.128;2022-12-18T06:57:40;0.60;31.90
12874;DHT22;6505;51.114;13.128;2022-12-18T07:00:09;0.60;32.00
12874;DHT22;6505;51.114;13.128;2022-12-18T07:02:40;0.60;32.10
12874;DHT22;6505;51.114;13.128;2022-12-18T07:05:10;0.60;31.90
12874;DHT22;6505;51.114;13.128;2022-12-18T07:07:39;0.60;32.00
12874;DHT22;6505;51.114;13.128;2022-12-18T07:10:11;0.50;31.90
12874;DHT22;6505;51.114;13.128;2022-12-18T07:12:39;0.60;32.10
12874;DHT22;6505;51.114;13.128;2022-12-18T07:15:10;0.50;31.80
12874;DHT22;6505;51.114;13.128;2022-12-18T07:17:39;0.50;31.90
12874;DHT22;6505;51.114;13.128;2022-12-18T07:20:11;0.50;31.80
12874;DHT22;6505;51.114;13.128;2022-12-18T07:22:41;0.50;32.00
12874;DHT22;6505;51.114;13.128;2022-12-18T07:25:09;0.50;31.70
12874;DHT22;6505;51.114;13.128;2022-12-18T07:27:41;0.50;31.80
12874;DHT22;6505;51.114;13.128;2022-12-18T07:30:10;0.50;31.70
12874;DHT22;6505;51.114;13.128;2022-12-18T07:32:40;0.50;31.90
12874;DHT22;6505;51.114;13.128;2022-12-18T07:35:11;0.50;31.70
12874;DHT22;6505;51.114;13.128;2022-12-18T07:37:39;0.40;31.60
12874;DHT22;6505;51.114;13.128;2022-12-18T07:40:11;0.40;31.60
12874;DHT22;6505;51.114;13.128;2022-12-18T07:42:42;0.40;31.90
12874;DHT22;6505;51.114;13.128;2022-12-18T07:45:14;0.40;31.70
12874;DHT22;6505;51.114;13.128;2022-12-18T07:47:42;0.40;31.80
12874;DHT22;6505;51.114;13.128;2022-12-18T07:50:11;0.40;31.70
12874;DHT22;6505;51.114;13.128;2022-12-18T07:52:42;0.40;31.80
12874;DHT22;6505;51.114;13.128;2022-12-18T07:55:10;0.40;31.80
12874;DHT22;6505;51.114;13.128;2022-12-18T07:57:39;0.40;31.80
12874;DHT22;6505;51.114;13.128;2022-12-18T08:00:22;0.40;32.10
12874;DHT22;6505;51.114;13.128;2022-12-18T08:02:52;0.40;32.00
12874;DHT22;6505;51.114;13.128;2022-12-18T08:05:21;0.40;32.00
12874;DHT22;6505;51.114;13.128;2022-12-18T08:07:50;0.40;32.20
12874;DHT22;6505;51.114;13.128;2022-12-18T08:10:19;0.40;32.00
12874;DHT22;6505;51.114;13.128;2022-12-18T08:12:50;0.40;32.30
12874;DHT22;6505;51.114;13.128;2022-12-18T08:15:33;0.40;32.30
12874;DHT22;6505;51.114;13.128;2022-12-18T08:18:03;0.40;32.20
12874;DHT22;6505;51.114;13.128;2022-12-18T08:20:38;0.40;32.30
12874;DHT22;6505;51.114;13.128;2022-12-18T08:23:11;0.40;32.30
12874;DHT22;6505;51.114;13.128;2022-12-18T08:25:39;0.40;32.40
12874;DHT22;6505;51.114;13.128;2022-12-18T08:28:09;0.40;32.50
12874;DHT22;6505;51.114;13.128;2022-12-18T08:30:41;0.40;32.50
12874;DHT22;6505;51.114;13.128;2022-12-18T08:33:12;0.40;32.50
12874;DHT22;6505;51.114;13.128;2022-12-18T08:35:40;0.40;32.50
12874;DHT22;6505;51.114;13.128;2022-12-18T08:38:15;0.40;32.70
12874;DHT22;6505;51.114;13.128;2022-12-18T08:40:44;0.50;32.90
12874;DHT22;6505;51.114;13.128;2022-12-18T08:43:12;0.40;32.90
12874;DHT22;6505;51.114;13.128;2022-12-18T08:46:03;0.40;33.00
12874;DHT22;6505;51.114;13.128;2022-12-18T08:48:33;0.50;33.50
12874;DHT22;6505;51.114;13.128;2022-12-18T08:51:02;0.50;33.30
12874;DHT22;6505;51.114;13.128;2022-12-18T08:53:33;0.50;33.50
12874;DHT22;6505;51.114;13.128;2022-12-18T08:56:01;0.50;33.60
12874;DHT22;6505;51.114;13.128;2022-12-18T08:58:33;0.50;33.70
12874;DHT22;6505;51.114;13.128;2022-12-18T09:01:03;0.50;33.70
12874;DHT22;6505;51.114;13.128;2022-12-18T09:03:35;0.50;34.10
12874;DHT22;6505;51.114;13.128;2022-12-18T09:06:06;0.50;34.90
12874;DHT22;6505;51.114;13.128;2022-12-18T09:08:36;0.50;34.30
12874;DHT22;6505;51.114;13.128;2022-12-18T09:11:12;0.60;34.30
12874;DHT22;6505;51.114;13.128;2022-12-18T09:13:42;0.60;34.60
12874;DHT22;6505;51.114;13.128;2022-12-18T09:16:11;0.60;34.70
12874;DHT22;6505;51.114;13.128;2022-12-18T09:18:42;0.60;34.70
12874;DHT22;6505;51.114;13.128;2022-12-18T09:21:12;0.70;34.90
12874;DHT22;6505;51.114;13.128;2022-12-18T09:23:49;0.70;35.20
12874;DHT22;6505;51.114;13.128;2022-12-18T09:26:19;0.70;35.80
12874;DHT22;6505;51.114;13.128;2022-12-18T09:28:48;0.70;35.30
12874;DHT22;6505;51.114;13.128;2022-12-18T09:31:20;0.70;35.40
12874;DHT22;6505;51.114;13.128;2022-12-18T09:33:55;0.70;35.60
12874;DHT22;6505;51.114;13.128;2022-12-18T09:36:25;0.70;35.60
12874;DHT22;6505;51.114;13.128;2022-12-18T09:38:57;0.70;35.60
12874;DHT22;6505;51.114;13.128;2022-12-18T09:41:43;0.80;35.90
12874;DHT22;6505;51.114;13.128;2022-12-18T09:44:18;0.80;36.20
12874;DHT22;6505;51.114;13.128;2022-12-18T09:47:03;0.80;36.20
12874;DHT22;6505;51.114;13.128;2022-12-18T09:49:41;0.80;36.40
12874;DHT22;6505;51.114;13.128;2022-12-18T09:52:17;0.90;36.60
12874;DHT22;6505;51.114;13.128;2022-12-18T09:54:55;0.90;36.80
12874;DHT22;6505;51.114;13.128;2022-12-18T09:57:26;0.90;36.90
12874;DHT22;6505;51.114;13.128;2022-12-18T10:00:06;0.90;37.00
12874;DHT22;6505;51.114;13.128;2022-12-18T10:02:47;0.90;37.30
12874;DHT22;6505;51.114;13.128;2022-12-18T10:05:27;1.00;37.40
12874;DHT22;6505;51.114;13.128;2022-12-18T10:08:07;1.00;37.60
12874;DHT22;6505;51.114;13.128;2022-12-18T10:10:47;1.10;37.90
12874;DHT22;6505;51.114;13.128;2022-12-18T10:13:26;1.00;37.80
12874;DHT22;6505;51.114;13.128;2022-12-18T10:16:09;1.10;38.10
12874;DHT22;6505;51.114;13.128;2022-12-18T10:19:04;1.20;38.30
12874;DHT22;6505;51.114;13.128;2022-12-18T10:21:51;1.20;38.60
12874;DHT22;6505;51.114;13.128;2022-12-18T10:24:42;1.20;39.30
12874;DHT22;6505;51.114;13.128;2022-12-18T10:27:21;1.20;38.70
12874;DHT22;6505;51.114;13.128;2022-12-18T10:29:53;1.30;39.00
12874;DHT22;6505;51.114;13.128;2022-12-18T10:32:26;1.30;39.20
12874;DHT22;6505;51.114;13.128;2022-12-18T10:35:00;1.30;39.40
12874;DHT22;6505;51.114;13.128;2022-12-18T10:38:01;1.30;39.40
12874;DHT22;6505;51.114;13.128;2022-12-18T10:40:48;1.40;40.00
12874;DHT22;6505;51.114;13.128;2022-12-18T10:43:23;1.40;40.00
12874;DHT22;6505;51.114;13.128;2022-12-18T10:46:13;1.50;39.90
12874;DHT22;6505;51.114;13.128;2022-12-18T10:48:52;1.50;40.10
12874;DHT22;6505;51.114;13.128;2022-12-18T10:51:26;1.50;40.10
12874;DHT22;6505;51.114;13.128;2022-12-18T10:54:05;1.60;40.20
12874;DHT22;6505;51.114;13.128;2022-12-18T10:56:42;1.60;40.60
12874;DHT22;6505;51.114;13.128;2022-12-18T10:59:13;1.60;40.60
12874;DHT22;6505;51.114;13.128;2022-12-18T11:01:48;1.70;41.00
12874;DHT22;6505;51.114;13.128;2022-12-18T11:04:23;1.70;41.10
12874;DHT22;6505;51.114;13.128;2022-12-18T11:07:00;1.80;41.90
12874;DHT22;6505;51.114;13.128;2022-12-18T11:09:35;1.80;41.40
12874;DHT22;6505;51.114;13.128;2022-12-18T11:12:17;1.80;41.50
12874;DHT22;6505;51.114;13.128;2022-12-18T11:14:51;1.90;41.80
12874;DHT22;6505;51.114;13.128;2022-12-18T11:17:27;1.90;41.80
12874;DHT22;6505;51.114;13.128;2022-12-18T11:20:20;1.90;41.90
12874;DHT22;6505;51.114;13.128;2022-12-18T11:23:05;2.00;42.20
12874;DHT22;6505;51.114;13.128;2022-12-18T11:25:51;2.00;42.30
12874;DHT22;6505;51.114;13.128;2022-12-18T11:28:45;2.10;42.60
12874;DHT22;6505;51.114;13.128;2022-12-18T11:31:23;2.10;42.60
12874;DHT22;6505;51.114;13.128;2022-12-18T11:33:59;2.10;42.70
12874;DHT22;6505;51.114;13.128;2022-12-18T11:36:49;2.20;42.70
12874;DHT22;6505;51.114;13.128;2022-12-18T11:39:26;2.20;42.60
12874;DHT22;6505;51.114;13.128;2022-12-18T11:42:05;2.20;42.80
12874;DHT22;6505;51.114;13.128;2022-12-18T11:44:47;2.30;43.00
12874;DHT22;6505;51.114;13.128;2022-12-18T11:47:26;2.30;43.10
12874;DHT22;6505;51.114;13.128;2022-12-18T11:50:24;2.40;43.40
12874;DHT22;6505;51.114;13.128;2022-12-18T11:53:04;2.40;43.30
12874;DHT22;6505;51.114;13.128;2022-12-18T11:55:43;2.50;43.50
12874;DHT22;6505;51.114;13.128;2022-12-18T11:58:42;2.50;43.70
12874;DHT22;6505;51.114;13.128;2022-12-18T12:01:26;2.50;43.90
12874;DHT22;6505;51.114;13.128;2022-12-18T12:04:34;2.60;43.90
12874;DHT22;6505;51.114;13.128;2022-12-18T12:07:28;2.60;44.10
12874;DHT22;6505;51.114;13.128;2022-12-18T12:10:24;2.70;44.10
12874;DHT22;6505;51.114;13.128;2022-12-18T12:13:20;2.70;44.20
12874;DHT22;6505;51.114;13.128;2022-12-18T12:16:06;2.70;44.20
12874;DHT22;6505;51.114;13.128;2022-12-18T12:19:02;2.80;44.40
12874;DHT22;6505;51.114;13.128;2022-12-18T12:21:41;2.80;44.40
12874;DHT22;6505;51.114;13.128;2022-12-18T12:24:24;2.80;44.40
12874;DHT22;6505;51.114;13.128;2022-12-18T12:27:13;2.90;44.70
12874;DHT22;6505;51.114;13.128;2022-12-18T12:30:03;2.90;44.50
12874;DHT22;6505;51.114;13.128;2022-12-18T12:32:45;2.90;44.60
12874;DHT22;6505;51.114;13.128;2022-12-18T12:35:51;3.00;44.70
12874;DHT22;6505;51.114;13.128;2022-12-18T12:38:28;3.00;45.50
12874;DHT22;6505;51.114;13.128;2022-12-18T12:41:07;3.00;44.70
12874;DHT22;6505;51.114;13.128;2022-12-18T12:44:02;3.10;44.90
12874;DHT22;6505;51.114;13.128;2022-12-18T12:46:38;3.10;44.80
12874;DHT22;6505;51.114;13.128;2022-12-18T12:49:15;3.20;45.00
12874;DHT22;6505;51.114;13.128;2022-12-18T12:51:56;3.20;45.80
12874;DHT22;6505;51.114;13.128;2022-12-18T12:54:36;3.30;45.20
12874;DHT22;6505;51.114;13.128;2022-12-18T12:57:09;3.30;45.20
12874;DHT22;6505;51.114;13.128;2022-12-18T12:59:49;3.30;45.20
12874;DHT22;6505;51.114;13.128;2022-12-18T13:02:28;3.30;45.20
12874;DHT22;6505;51.114;13.128;2022-12-18T13:05:07;3.30;45.10
12874;DHT22;6505;51.114;13.128;2022-12-18T13:07:49;3.40;45.20
12874;DHT22;6505;51.114;13.128;2022-12-18T13:10:35;3.50;45.30
12874;DHT22;6505;51.114;13.128;2022-12-18T13:13:07;3.50;45.90
12874;DHT22;6505;51.114;13.128;2022-12-18T13:15:46;3.50;45.20
12874;DHT22;6505;51.114;13.128;2022-12-18T13:18:21;3.50;45.20
12874;DHT22;6505;51.114;13.128;2022-12-18T13:21:11;3.50;45.20
12874;DHT22;6505;51.114;13.128;2022-12-18T13:23:49;3.50;45.20
12874;DHT22;6505;51.114;13.128;2022-12-18T13:26:31;3.60;45.10
12874;DHT22;6505;51.114;13.128;2022-12-18T13:29:06;3.60;45.20
12874;DHT22;6505;51.114;13.128;2022-12-18T13:32:00;3.60;45.00
12874;DHT22;6505;51.114;13.128;2022-12-18T13:34:35;3.60;45.10
12874;DHT22;6505;51.114;13.128;2022-12-18T13:37:43;3.60;45.00
12874;DHT22;6505;51.114;13.128;2022-12-18T13:43:36;3.70;45.30
12874;DHT22;6505;51.114;13.128;2022-12-18T13:46:28;3.70;45.30
12874;DHT22;6505;51.114;13.128;2022-12-18T13:49:20;3.70;45.20
12874;DHT22;6505;51.114;13.128;2022-12-18T13:51:55;3.70;45.10
12874;DHT22;6505;51.114;13.128;2022-12-18T13:54:28;3.80;45.00
12874;DHT22;6505;51.114;13.128;2022-12-18T13:57:26;3.80;45.00
12874;DHT22;6505;51.114;13.128;2022-12-18T13:59:57;3.80;44.80
12874;DHT22;6505;51.114;13.128;2022-12-18T14:02:36;3.80;44.70
12874;DHT22;6505;51.114;13.128;2022-12-18T14:05:22;3.80;44.60
12874;DHT22;6505;51.114;13.128;2022-12-18T14:07:51;3.90;44.70
12874;DHT22;6505;51.114;13.128;2022-12-18T14:10:22;3.90;44.80
12874;DHT22;6505;51.114;13.128;2022-12-18T14:13:16;3.90;44.80
12874;DHT22;6505;51.114;13.128;2022-12-18T14:15:51;4.00;44.80
12874;DHT22;6505;51.114;13.128;2022-12-18T14:18:25;4.00;44.70
12874;DHT22;6505;51.114;13.128;2022-12-18T14:21:00;4.00;44.90
12874;DHT22;6505;51.114;13.128;2022-12-18T14:23:36;4.00;44.90
12874;DHT22;6505;51.114;13.128;2022-12-18T14:26:20;4.00;44.70
12874;DHT22;6505;51.114;13.128;2022-12-18T14:28:51;4.10;44.50
12874;DHT22;6505;51.114;13.128;2022-12-18T14:31:26;4.10;44.40
12874;DHT22;6505;51.114;13.128;2022-12-18T14:33:58;4.10;44.50
12874;DHT22;6505;51.114;13.128;2022-12-18T14:36:29;4.10;44.80
12874;DHT22;6505;51.114;13.128;2022-12-18T14:39:02;4.10;44.50
12874;DHT22;6505;51.114;13.128;2022-12-18T14:41:37;4.20;44.60
12874;DHT22;6505;51.114;13.128;2022-12-18T14:44:11;4.10;44.50
12874;DHT22;6505;51.114;13.128;2022-12-18T14:46:44;4.20;44.80
12874;DHT22;6505;51.114;13.128;2022-12-18T14:49:22;4.20;44.80
12874;DHT22;6505;51.114;13.128;2022-12-18T14:51:56;4.20;44.70
12874;DHT22;6505;51.114;13.128;2022-12-18T14:54:31;4.20;44.70
12874;DHT22;6505;51.114;13.128;2022-12-18T14:57:22;4.20;44.50
12874;DHT22;6505;51.114;13.128;2022-12-18T15:04:24;4.20;44.00
12874;DHT22;6505;51.114;13.128;2022-12-18T15:07:04;4.20;43.50
12874;DHT22;6505;51.114;13.128;2022-12-18T15:10:03;4.20;43.90
12874;DHT22;6505;51.114;13.128;2022-12-18T15:12:43;4.20;43.80
12874;DHT22;6505;51.114;13.128;2022-12-18T15:15:47;4.20;43.80
12874;DHT22;6505;51.114;13.128;2022-12-18T15:18:18;4.20;43.90
12874;DHT22;6505;51.114;13.128;2022-12-18T15:20:51;4.20;43.80
12874;DHT22;6505;51.114;13.128;2022-12-18T15:23:24;4.20;43.60
12874;DHT22;6505;51.114;13.128;2022-12-18T15:26:01;4.20;43.50
12874;DHT22;6505;51.114;13.128;2022-12-18T15:28:38;4.20;43.50
12874;DHT22;6505;51.114;13.128;2022-12-18T15:31:26;4.20;43.40
12874;DHT22;6505;51.114;13.128;2022-12-18T15:34:10;4.20;42.70
12874;DHT22;6505;51.114;13.128;2022-12-18T15:36:42;4.20;43.40
12874;DHT22;6505;51.114;13.128;2022-12-18T15:39:13;4.20;43.20
12874;DHT22;6505;51.114;13.128;2022-12-18T15:41:42;4.20;43.10
12874;DHT22;6505;51.114;13.128;2022-12-18T15:44:36;4.20;43.10
12874;DHT22;6505;51.114;13.128;2022-12-18T15:47:12;4.20;42.90
12874;DHT22;6505;51.114;13.128;2022-12-18T15:49:40;4.20;42.90
12874;DHT22;6505;51.114;13.128;2022-12-18T15:52:12;4.20;42.70
12874;DHT22;6505;51.114;13.128;2022-12-18T15:54:52;4.20;42.70
12874;DHT22;6505;51.114;13.128;2022-12-18T15:57:41;4.10;42.60
12874;DHT22;6505;51.114;13.128;2022-12-18T16:00:12;4.20;42.40
12874;DHT22;6505;51.114;13.128;2022-12-18T16:02:44;4.10;42.20
12874;DHT22;6505;51.114;13.128;2022-12-18T16:05:17;4.10;42.10
12874;DHT22;6505;51.114;13.128;2022-12-18T16:07:48;4.20;42.20
12874;DHT22;6505;51.114;13.128;2022-12-18T16:10:16;4.10;41.90
12874;DHT22;6505;51.114;13.128;2022-12-18T16:12:46;4.10;42.00
12874;DHT22;6505;51.114;13.128;2022-12-18T16:15:16;4.10;42.10
12874;DHT22;6505;51.114;13.128;2022-12-18T16:17:50;4.20;42.10
12874;DHT22;6505;51.114;13.128;2022-12-18T16:20:21;4.10;42.00
12874;DHT22;6505;51.114;13.128;2022-12-18T16:22:49;4.10;42.00
12874;DHT22;6505;51.114;13.128;2022-12-18T16:25:20;4.10;41.70
12874;DHT22;6505;51.114;13.128;2022-12-18T16:27:56;4.10;41.70
12874;DHT22;6505;51.114;13.128;2022-12-18T16:30:27;4.10;41.60
12874;DHT22;6505;51.114;13.128;2022-12-18T16:33:04;4.10;41.60
12874;DHT22;6505;51.114;13.128;2022-12-18T16:35:40;4.10;41.50
12874;DHT22;6505;51.114;13.128;2022-12-18T16:38:08;4.10;41.50
12874;DHT22;6505;51.114;13.128;2022-12-18T16:40:37;4.10;41.50
12874;DHT22;6505;51.114;13.128;2022-12-18T16:43:31;4.00;41.40
12874;DHT22;6505;51.114;13.128;2022-12-18T16:46:03;4.00;41.30
12874;DHT22;6505;51.114;13.128;2022-12-18T16:48:33;4.00;41.20